Time;durP1;ratioP1;P1;durP2;ratioP2;P2;SDS_P1;SDS_P2;PMS_P1;PMS_P2;Temp;Humidity;BMP_temperature;BMP_pressure;BME280_temperature;BME280_humidity;BME280_pressure;Samples;Min_cycle;Max_cycle;Signal;HPM_P1;HPM_P2
2021/06/08 00:00:25;;;;;;;98.10;61.03;;;15.80;99.90;;;;;;4992505;28;20047;-92
2021/06/08 00:02:55;;;;;;;94.43;59.30;;;15.80;99.90;;;;;;5002050;28;20154;-93
2021/06/08 00:05:25;;;;;;;98.55;62.22;;;15.80;99.90;;;;;;5001029;28;20046;-91
2021/06/08 00:07:53;;;;;;;96.75;61.65;;;15.80;99.90;;;;;;4996563;28;20046;-91
2021/06/08 00:10:21;;;;;;;96.68;60.28;;;15.80;99.90;;;;;;5007360;28;20358;-92
2021/06/08 00:12:48;;;;;;;95.18;62.95;;;15.80;99.90;;;;;;4998249;28;20118;-92
2021/06/08 00:15:18;;;;;;;98.65;62.08;;;15.80;99.90;;;;;;4967364;28;20078;-92
2021/06/08 00:17:45;;;;;;;95.40;60.40;;;15.80;99.90;;;;;;4978955;28;20046;-92
2021/06/08 00:20:14;;;;;;;94.55;60.58;;;15.80;99.90;;;;;;4998049;28;20083;-90
2021/06/08 00:22:45;;;;;;;53.92;38.65;;;15.80;99.90;;;;;;4994584;28;20106;-89
2021/06/08 00:25:13;;;;;;;35.60;25.88;;;15.70;99.90;;;;;;4983735;28;20042;-91
2021/06/08 00:27:40;;;;;;;36.83;27.40;;;15.70;99.90;;;;;;4996676;28;20054;-90
2021/06/08 00:30:16;;;;;;;19.30;15.52;;;15.60;99.90;;;;;;4977459;28;20082;-90
2021/06/08 00:32:44;;;;;;;26.20;20.02;;;15.60;99.90;;;;;;4975831;28;20061;-90
2021/06/08 00:35:12;;;;;;;16.58;14.40;;;15.60;99.90;;;;;;4993006;28;20201;-90
2021/06/08 00:37:44;;;;;;;11.18;9.57;;;15.50;99.90;;;;;;4964380;28;20137;-91
2021/06/08 00:40:16;;;;;;;12.55;10.00;;;15.40;99.90;;;;;;4959101;28;20152;-91
2021/06/08 00:42:45;;;;;;;12.50;9.20;;;15.30;99.90;;;;;;4976823;28;20469;-91
2021/06/08 00:45:12;;;;;;;12.20;10.57;;;15.30;99.90;;;;;;4959011;28;20047;-92
2021/06/08 00:47:39;;;;;;;11.85;8.88;;;15.30;99.90;;;;;;4976374;28;20496;-91
2021/06/08 00:50:07;;;;;;;9.95;8.40;;;15.30;99.90;;;;;;4975393;28;20116;-92
2021/06/08 00:52:34;;;;;;;9.13;6.95;;;15.20;99.90;;;;;;4959043;28;20609;-91
2021/06/08 00:55:04;;;;;;;7.28;6.03;;;15.10;99.90;;;;;;4976509;28;20050;-91
2021/06/08 00:57:32;;;;;;;7.95;7.18;;;15.10;99.90;;;;;;4962408;28;20519;-92
2021/06/08 00:59:58;;;;;;;7.10;6.40;;;15.10;99.90;;;;;;4958616;28;20043;-92
2021/06/08 01:02:25;;;;;;;7.53;6.60;;;15.10;99.90;;;;;;4953799;28;20125;-91
2021/06/08 01:04:52;;;;;;;7.78;6.97;;;15.00;99.90;;;;;;4975945;28;20453;-93
2021/06/08 01:07:20;;;;;;;9.32;7.93;;;15.00;99.90;;;;;;4975397;28;20118;-92
2021/06/08 01:09:47;;;;;;;11.15;9.95;;;14.90;99.90;;;;;;4958751;28;20113;-91
2021/06/08 01:12:14;;;;;;;12.02;10.27;;;14.80;99.90;;;;;;4976445;28;20050;-92
2021/06/08 01:14:44;;;;;;;12.63;9.68;;;14.80;99.90;;;;;;4989977;28;20047;-92
2021/06/08 01:17:11;;;;;;;9.95;8.95;;;14.80;99.90;;;;;;4976427;28;20051;-92
2021/06/08 01:19:40;;;;;;;10.85;8.48;;;14.80;99.90;;;;;;4975549;28;20371;-92
2021/06/08 01:22:08;;;;;;;8.80;7.82;;;14.80;99.90;;;;;;4976019;28;20061;-91
2021/06/08 01:24:38;;;;;;;8.77;7.88;;;14.80;99.90;;;;;;4974790;28;20050;-94
2021/06/08 01:27:07;;;;;;;9.32;8.30;;;14.80;99.90;;;;;;4958624;28;20062;-92
2021/06/08 01:29:36;;;;;;;11.40;8.68;;;14.80;99.90;;;;;;4977872;28;20114;-94
2021/06/08 01:32:04;;;;;;;11.68;8.88;;;14.80;99.90;;;;;;4958318;28;20522;-93
2021/06/08 01:34:34;;;;;;;12.70;10.48;;;14.80;99.90;;;;;;4974980;28;20558;-93
2021/06/08 01:37:02;;;;;;;16.10;12.52;;;14.80;99.90;;;;;;4968461;28;20468;-93
2021/06/08 01:39:31;;;;;;;14.80;13.02;;;14.80;99.90;;;;;;4956850;28;20082;-93
2021/06/08 01:42:00;;;;;;;14.77;11.73;;;14.90;99.90;;;;;;4976656;28;20151;-92
2021/06/08 01:44:27;;;;;;;14.23;11.30;;;14.90;99.90;;;;;;4983856;28;20046;-92
2021/06/08 01:46:55;;;;;;;12.27;10.45;;;14.90;99.90;;;;;;4986523;28;20518;-93
2021/06/08 01:49:23;;;;;;;13.77;9.65;;;14.90;99.90;;;;;;4975973;28;20051;-91
2021/06/08 01:52:09;;;;;;;14.85;9.50;;;15.00;99.90;;;;;;4955366;28;20348;-90
2021/06/08 01:54:41;;;;;;;8.77;7.88;;;15.00;99.90;;;;;;4975195;28;20119;-93
2021/06/08 01:57:17;;;;;;;8.27;7.47;;;14.90;99.90;;;;;;4974967;28;20091;-91
2021/06/08 02:00:00;;;;;;;8.15;7.38;;;14.90;99.90;;;;;;4974992;28;20440;-91
2021/06/08 02:02:39;;;;;;;7.80;7.10;;;14.90;99.90;;;;;;4988453;28;20334;-92
2021/06/08 02:05:15;;;;;;;8.15;6.80;;;14.90;99.90;;;;;;4974720;28;20043;-91
2021/06/08 02:08:06;;;;;;;9.73;8.00;;;14.80;99.90;;;;;;4969914;28;20055;-91
2021/06/08 02:10:49;;;;;;;8.13;7.10;;;14.90;99.90;;;;;;4936128;28;20047;-92
2021/06/08 02:13:40;;;;;;;9.20;8.20;;;14.90;99.90;;;;;;4966314;28;20436;-92
2021/06/08 02:16:16;;;;;;;7.00;6.30;;;14.90;99.90;;;;;;4967920;28;20113;-92
2021/06/08 02:18:45;;;;;;;7.97;6.60;;;14.90;99.90;;;;;;4978124;28;20103;-94
2021/06/08 02:21:16;;;;;;;8.90;7.88;;;15.00;99.90;;;;;;4961013;28;20110;-94
2021/06/08 02:23:45;;;;;;;8.00;7.20;;;15.00;99.90;;;;;;4975028;28;20050;-92
2021/06/08 02:26:12;;;;;;;8.50;7.22;;;15.00;99.90;;;;;;4973944;28;20114;-90
2021/06/08 02:28:42;;;;;;;9.55;7.50;;;15.00;99.90;;;;;;4977787;28;20059;-92
2021/06/08 02:31:10;;;;;;;9.18;8.23;;;15.00;99.90;;;;;;4961037;28;20051;-92
2021/06/08 02:33:47;;;;;;;11.93;8.40;;;15.00;99.90;;;;;;4987683;28;20153;-91
2021/06/08 02:36:14;;;;;;;10.05;7.85;;;15.00;99.90;;;;;;4986691;28;20148;-92
2021/06/08 02:38:46;;;;;;;10.63;8.88;;;15.00;99.90;;;;;;5000798;28;20112;-93
2021/06/08 02:41:15;;;;;;;12.77;8.45;;;15.10;99.90;;;;;;4994992;28;20043;-92
2021/06/08 02:43:45;;;;;;;9.32;8.32;;;15.00;99.90;;;;;;4994664;28;20108;-91
2021/06/08 02:46:15;;;;;;;14.82;10.40;;;15.10;99.90;;;;;;4982752;28;20043;-94
2021/06/08 02:48:47;;;;;;;12.13;10.38;;;15.10;99.90;;;;;;4992663;28;20064;-93
2021/06/08 02:51:19;;;;;;;12.63;10.93;;;15.20;99.90;;;;;;4993867;28;20084;-94
2021/06/08 02:53:47;;;;;;;11.40;10.20;;;15.10;99.90;;;;;;4976886;28;20138;-92
2021/06/08 02:56:25;;;;;;;13.27;9.82;;;15.10;99.90;;;;;;5018455;28;20046;-93
2021/06/08 02:58:53;;;;;;;12.63;11.32;;;15.10;99.90;;;;;;4977808;28;20046;-92
2021/06/08 03:01:23;;;;;;;12.60;11.00;;;15.10;99.90;;;;;;5006304;28;20056;-92
2021/06/08 03:03:58;;;;;;;13.55;11.38;;;15.10;99.90;;;;;;5007654;28;20046;-93
2021/06/08 03:06:34;;;;;;;16.90;12.07;;;15.10;99.90;;;;;;5007740;28;20046;-94
2021/06/08 03:09:06;;;;;;;15.25;12.73;;;15.10;99.90;;;;;;5012789;28;20050;-94
2021/06/08 03:11:39;;;;;;;14.63;13.13;;;15.20;99.90;;;;;;4995342;28;20046;-91
2021/06/08 03:14:11;;;;;;;12.77;11.38;;;15.20;99.90;;;;;;5012722;28;20043;-92
2021/06/08 03:16:44;;;;;;;13.52;12.13;;;15.20;99.90;;;;;;5011590;28;20046;-89
2021/06/08 03:19:15;;;;;;;17.17;14.05;;;15.20;99.90;;;;;;5014541;28;20086;-91
2021/06/08 03:21:54;;;;;;;16.80;14.98;;;15.20;99.90;;;;;;4986182;28;20089;-91
2021/06/08 03:24:28;;;;;;;20.98;16.38;;;15.20;99.90;;;;;;4997761;28;20042;-91
2021/06/08 03:27:00;;;;;;;22.65;18.55;;;15.20;99.90;;;;;;4983266;28;20049;-92
2021/06/08 03:29:30;;;;;;;28.63;22.27;;;15.20;99.90;;;;;;4977111;28;20129;-90
2021/06/08 03:31:59;;;;;;;;;;;15.30;99.90;;;;;;4999890;28;20053;-91
2021/06/08 03:34:32;;;;;;;34.00;26.38;;;15.30;99.90;;;;;;4980873;28;19922;-91
2021/06/08 03:37:01;;;;;;;38.30;27.00;;;15.30;99.90;;;;;;4980352;28;20066;-92
2021/06/08 03:39:36;;;;;;;40.53;27.35;;;15.30;99.90;;;;;;4996504;28;20050;-91
2021/06/08 03:42:21;;;;;;;35.08;26.05;;;15.30;99.90;;;;;;4970829;28;20078;-91
2021/06/08 03:44:49;;;;;;;34.05;25.58;;;15.40;99.90;;;;;;4967828;28;20043;-91
2021/06/08 03:47:20;;;;;;;41.63;27.75;;;15.50;99.90;;;;;;4995007;28;20077;-92
2021/06/08 03:49:51;;;;;;;36.88;27.08;;;15.50;99.90;;;;;;4977557;28;20046;-93
2021/06/08 03:52:18;;;;;;;36.97;27.73;;;15.50;99.90;;;;;;4996055;28;20459;-92
2021/06/08 03:54:46;;;;;;;34.95;25.63;;;15.60;99.90;;;;;;4978663;28;20479;-93
2021/06/08 03:57:14;;;;;;;38.75;28.33;;;15.70;99.90;;;;;;4971420;28;20047;-92
2021/06/08 03:59:42;;;;;;;37.75;26.77;;;15.70;99.90;;;;;;5010845;28;20435;-91
2021/06/08 04:02:10;;;;;;;42.85;27.83;;;15.80;99.90;;;;;;4977568;28;20050;-91
2021/06/08 04:04:39;;;;;;;38.35;27.67;;;15.80;99.90;;;;;;4979659;28;20104;-91
2021/06/08 04:07:06;;;;;;;44.10;30.38;;;15.80;99.90;;;;;;4996477;28;20050;-92
2021/06/08 04:09:33;;;;;;;41.28;29.80;;;15.90;99.90;;;;;;4996702;28;20062;-91
2021/06/08 04:12:00;;;;;;;47.15;33.08;;;15.90;99.90;;;;;;4994555;28;20096;-92
2021/06/08 04:14:28;;;;;;;53.58;34.30;;;15.90;99.90;;;;;;4978493;28;20143;-91
2021/06/08 04:16:56;;;;;;;58.28;37.38;;;15.90;99.90;;;;;;4995689;28;20088;-90
2021/06/08 04:19:23;;;;;;;60.15;36.65;;;15.90;99.90;;;;;;4961385;28;20065;-91
2021/06/08 04:21:51;;;;;;;62.08;39.65;;;15.90;99.90;;;;;;4996083;28;20161;-90
2021/06/08 04:24:19;;;;;;;60.83;37.90;;;15.90;99.90;;;;;;4992820;28;20050;-90
2021/06/08 04:26:46;;;;;;;57.55;36.35;;;16.00;99.90;;;;;;4982706;28;20050;-91
2021/06/08 04:29:13;;;;;;;58.60;38.47;;;16.00;99.90;;;;;;4990616;28;20046;-91
2021/06/08 04:31:44;;;;;;;62.03;39.13;;;16.00;99.90;;;;;;4994114;28;20143;-92
2021/06/08 04:34:19;;;;;;;60.20;39.22;;;16.00;99.90;;;;;;4996051;28;20042;-91
2021/06/08 04:36:47;;;;;;;62.92;39.95;;;16.00;99.90;;;;;;4970474;28;20058;-93
2021/06/08 04:39:15;;;;;;;58.92;39.70;;;16.10;99.90;;;;;;4976220;28;20117;-91
2021/06/08 04:41:47;;;;;;;65.78;41.65;;;16.00;99.90;;;;;;4987705;28;20065;-92
2021/06/08 04:44:21;;;;;;;69.63;41.92;;;16.10;99.90;;;;;;4994189;28;20047;-92
2021/06/08 04:46:47;;;;;;;66.63;39.25;;;16.10;99.90;;;;;;4989413;28;20051;-91
2021/06/08 04:49:16;;;;;;;63.63;41.22;;;16.10;99.90;;;;;;4994252;28;20050;-93
2021/06/08 04:51:42;;;;;;;62.33;39.53;;;16.10;99.90;;;;;;4962443;28;20749;-92
2021/06/08 04:54:10;;;;;;;62.22;39.20;;;16.10;99.90;;;;;;4992529;28;20106;-92
2021/06/08 04:56:42;;;;;;;66.63;39.97;;;16.20;99.90;;;;;;4974257;28;20054;-93
2021/06/08 04:59:22;;;;;;;61.88;41.17;;;16.20;99.90;;;;;;4987510;28;20039;-92
2021/06/08 05:01:56;;;;;;;65.28;39.35;;;16.20;99.90;;;;;;4995267;28;20157;-92
2021/06/08 05:04:28;;;;;;;65.45;43.58;;;16.20;99.90;;;;;;4996173;28;20050;-92
2021/06/08 05:07:03;;;;;;;69.28;44.20;;;16.20;99.90;;;;;;4998294;28;20055;-93
2021/06/08 05:09:37;;;;;;;71.90;45.67;;;16.30;99.90;;;;;;4996611;28;20146;-91
2021/06/08 05:12:05;;;;;;;;;;;16.30;99.90;;;;;;4993546;28;20062;-93
2021/06/08 05:14:34;;;;;;;75.50;44.75;;;16.30;99.90;;;;;;4990710;28;19985;-92
2021/06/08 05:17:03;;;;;;;72.95;44.28;;;16.30;99.90;;;;;;4962980;28;20142;-94
2021/06/08 05:19:32;;;;;;;71.95;46.40;;;16.40;99.90;;;;;;4988000;28;20051;-93
2021/06/08 05:22:08;;;;;;;72.70;46.40;;;16.30;99.90;;;;;;4992404;28;20051;-93
2021/06/08 05:24:35;;;;;;;69.97;45.58;;;16.40;99.90;;;;;;5004615;28;20100;-93
2021/06/08 05:27:03;;;;;;;67.07;43.25;;;16.40;99.90;;;;;;5008974;28;20080;-92
2021/06/08 05:29:30;;;;;;;71.35;44.65;;;16.40;99.90;;;;;;4981463;28;20050;-93
2021/06/08 05:31:58;;;;;;;72.32;45.38;;;16.40;99.90;;;;;;4994857;28;20047;-93
2021/06/08 05:34:28;;;;;;;66.68;44.33;;;16.40;99.90;;;;;;4998299;28;20046;-91
2021/06/08 05:36:55;;;;;;;62.72;42.88;;;16.60;99.90;;;;;;4999103;28;20100;-94
2021/06/08 05:39:39;;;;;;;61.35;42.97;;;16.60;99.90;;;;;;5015429;28;20042;-92
2021/06/08 05:42:17;;;;;;;56.78;41.40;;;16.70;99.90;;;;;;5025250;28;20050;-92
2021/06/08 05:44:47;;;;;;;52.03;39.58;;;16.90;99.90;;;;;;4991889;28;20336;-92
2021/06/08 05:47:20;;;;;;;56.30;39.93;;;16.90;99.90;;;;;;5005528;28;20050;-92
2021/06/08 05:49:51;;;;;;;53.00;38.00;;;17.10;99.90;;;;;;4986033;28;20317;-93
2021/06/08 05:52:22;;;;;;;51.35;37.58;;;17.30;99.90;;;;;;5005433;28;20134;-92
2021/06/08 05:54:51;;;;;;;53.35;37.25;;;17.40;99.90;;;;;;5000757;28;20073;-93
2021/06/08 05:57:23;;;;;;;53.03;38.60;;;17.50;99.90;;;;;;4984006;28;20085;-94
2021/06/08 05:59:55;;;;;;;51.20;37.67;;;17.50;99.90;;;;;;5000204;28;20112;-92
2021/06/08 06:02:25;;;;;;;49.42;36.15;;;17.50;99.90;;;;;;4980698;28;20042;-92
2021/06/08 06:04:53;;;;;;;51.58;37.95;;;17.60;99.90;;;;;;5015103;28;20060;-91
2021/06/08 06:07:20;;;;;;;53.17;37.40;;;17.60;99.90;;;;;;5001113;28;20078;-92
2021/06/08 06:10:01;;;;;;;51.75;37.35;;;17.60;99.90;;;;;;4998081;28;20109;-93
2021/06/08 06:12:36;;;;;;;49.97;36.65;;;17.60;99.90;;;;;;5001726;28;20050;-93
2021/06/08 06:15:13;;;;;;;51.03;36.92;;;17.70;99.90;;;;;;4983946;28;20222;-93
2021/06/08 06:17:42;;;;;;;48.47;36.30;;;17.60;99.90;;;;;;5006907;28;20351;-91
2021/06/08 06:20:14;;;;;;;49.85;36.30;;;17.60;99.90;;;;;;5022292;28;20088;-91
2021/06/08 06:22:45;;;;;;;56.78;39.42;;;17.50;99.90;;;;;;5002449;28;20058;-92
2021/06/08 06:25:14;;;;;;;61.20;40.55;;;17.40;99.90;;;;;;5001765;28;20046;-93
2021/06/08 06:27:42;;;;;;;54.97;38.95;;;17.40;99.90;;;;;;5001895;28;20447;-91
2021/06/08 06:30:36;;;;;;;52.05;39.58;;;17.50;99.90;;;;;;5000140;28;20049;-92
2021/06/08 06:33:12;;;;;;;50.85;38.63;;;17.60;99.90;;;;;;4999905;28;20046;-92
2021/06/08 06:35:49;;;;;;;54.42;39.97;;;17.70;99.90;;;;;;4997657;28;20100;-92
2021/06/08 06:38:18;;;;;;;55.20;38.50;;;17.80;99.90;;;;;;4957459;28;20051;-92
2021/06/08 06:40:49;;;;;;;52.53;37.00;;;17.90;99.90;;;;;;4963953;28;20054;-92
2021/06/08 06:43:38;;;;;;;48.50;35.88;;;18.00;99.90;;;;;;4976617;28;20058;-90
2021/06/08 06:46:24;;;;;;;44.97;32.50;;;18.20;99.90;;;;;;4968483;28;20058;-92
2021/06/08 06:49:27;;;;;;;40.08;32.80;;;18.30;99.90;;;;;;4977073;28;20054;-93
2021/06/08 06:52:10;;;;;;;40.88;32.75;;;18.50;99.90;;;;;;4963668;29;20082;-93
2021/06/08 06:54:38;;;;;;;37.63;30.63;;;18.60;99.90;;;;;;4971291;28;20053;-91
2021/06/08 06:57:12;;;;;;;37.60;28.63;;;18.60;99.90;;;;;;4972177;28;20042;-92
2021/06/08 06:59:43;;;;;;;36.10;28.80;;;18.70;99.90;;;;;;4978897;28;20038;-93
2021/06/08 07:02:26;;;;;;;;;;;;;;;;;;;;;
2021/06/08 07:05:38;;;;;;;33.22;26.70;;;18.80;99.90;;;;;;4950902;28;20135;-92
2021/06/08 07:08:35;;;;;;;35.92;28.35;;;18.80;99.90;;;;;;4982017;28;20380;-92
2021/06/08 07:11:19;;;;;;;34.83;28.30;;;18.60;99.90;;;;;;4961180;29;20086;-91
2021/06/08 07:14:02;;;;;;;;;;;18.50;99.90;;;;;;4964884;28;20043;-91
2021/06/08 07:16:43;;;;;;;37.83;29.60;;;18.50;99.90;;;;;;4963882;28;19929;-91
2021/06/08 07:19:28;;;;;;;;;;;;;;;;;;;;;
2021/06/08 07:22:00;;;;;;;35.85;30.13;;;18.60;99.90;;;;;;4949335;29;20114;-91
2021/06/08 07:24:40;;;;;;;36.45;28.88;;;18.70;99.90;;;;;;4960501;29;20051;-92
2021/06/08 07:27:17;;;;;;;38.10;28.77;;;18.80;99.90;;;;;;4966117;29;20559;-91
2021/06/08 07:29:45;;;;;;;37.78;28.90;;;19.00;99.90;;;;;;4946868;29;20059;-92
2021/06/08 07:33:03;;;;;;;34.25;28.73;;;19.10;99.90;;;;;;4964058;29;20763;-91
2021/06/08 07:36:08;;;;;;;41.15;29.35;;;19.30;99.90;;;;;;4968004;28;20353;-93
2021/06/08 07:39:00;;;;;;;42.33;30.37;;;19.40;99.90;;;;;;4933790;28;20075;-93
2021/06/08 07:41:37;;;;;;;38.20;28.92;;;19.70;99.90;;;;;;4984144;28;20693;-93
2021/06/08 07:44:13;;;;;;;39.47;27.58;;;19.80;99.90;;;;;;5001684;28;20101;-93
2021/06/08 07:46:42;;;;;;;36.22;29.85;;;19.90;99.90;;;;;;5013926;28;20054;-93
2021/06/08 07:49:27;;;;;;;39.13;29.67;;;19.80;99.90;;;;;;5001526;28;20191;-93
2021/06/08 07:51:55;;;;;;;39.03;31.27;;;19.70;99.90;;;;;;4996815;28;20073;-93
2021/06/08 07:54:32;;;;;;;38.92;30.45;;;19.60;99.90;;;;;;4998609;28;20054;-93
2021/06/08 07:57:02;;;;;;;36.22;30.55;;;19.60;99.90;;;;;;4979944;28;20082;-92
2021/06/08 08:00:00;;;;;;;38.35;31.52;;;19.40;99.90;;;;;;4988994;28;21037;-92
2021/06/08 08:02:27;;;;;;;38.75;32.33;;;19.30;99.90;;;;;;4986889;28;20252;-94
2021/06/08 08:04:57;;;;;;;39.15;31.15;;;19.10;99.90;;;;;;5000596;28;20093;-93
2021/06/08 08:07:27;;;;;;;40.88;31.10;;;19.10;99.90;;;;;;4973788;28;20054;-93
2021/06/08 08:09:55;;;;;;;41.70;33.78;;;19.10;99.90;;;;;;4998434;28;20118;-92
2021/06/08 08:12:23;;;;;;;46.92;34.67;;;19.10;99.90;;;;;;4988304;28;20081;-92
2021/06/08 08:15:01;;;;;;;46.38;33.45;;;19.30;99.90;;;;;;5004760;28;20118;-92
2021/06/08 08:17:29;;;;;;;44.13;33.55;;;19.30;99.90;;;;;;4971145;28;20126;-92
2021/06/08 08:20:07;;;;;;;42.88;34.33;;;19.50;99.90;;;;;;4997891;28;20057;-92
2021/06/08 08:22:37;;;;;;;36.85;30.00;;;19.70;99.90;;;;;;4998461;28;20066;-93
2021/06/08 08:25:25;;;;;;;43.97;32.17;;;19.80;99.90;;;;;;4989108;28;20061;-93
2021/06/08 08:27:54;;;;;;;38.38;31.88;;;19.90;99.90;;;;;;4980043;28;20050;-91
2021/06/08 08:30:26;;;;;;;43.58;32.97;;;19.60;99.90;;;;;;4983266;28;20054;-93
2021/06/08 08:33:34;;;;;;;38.60;32.58;;;19.50;99.90;;;;;;4984016;28;20042;-92
2021/06/08 08:36:02;;;;;;;42.70;33.00;;;19.40;99.90;;;;;;4998213;28;20067;-92
2021/06/08 08:38:36;;;;;;;40.40;32.60;;;19.30;99.90;;;;;;5000951;28;20058;-92
2021/06/08 08:41:14;;;;;;;39.97;31.85;;;19.30;99.90;;;;;;5000813;28;20356;-92
2021/06/08 08:43:46;;;;;;;40.78;30.42;;;19.40;99.90;;;;;;5002491;28;20069;-94
2021/06/08 08:46:16;;;;;;;38.22;29.88;;;19.70;99.90;;;;;;4999234;28;20083;-92
2021/06/08 08:48:45;;;;;;;35.67;31.30;;;20.10;99.90;;;;;;5015536;28;20049;-92
2021/06/08 08:51:15;;;;;;;35.88;29.48;;;20.10;99.90;;;;;;5005546;28;20050;-91
2021/06/08 08:54:12;;;;;;;40.53;30.75;;;19.90;99.90;;;;;;5002239;28;20050;-93
2021/06/08 08:57:20;;;;;;;35.28;30.60;;;19.90;99.90;;;;;;4997624;28;20697;-93
2021/06/08 08:59:58;;;;;;;;;;;;;;;;;;;;;
2021/06/08 09:02:43;;;;;;;38.85;31.40;;;20.40;99.90;;;;;;5000994;28;20486;-93
2021/06/08 09:05:11;;;;;;;35.30;29.75;;;20.70;99.90;;;;;;5007705;28;20373;-93
2021/06/08 09:07:38;;;;;;;34.00;27.95;;;20.90;99.90;;;;;;5000859;28;20050;-93
2021/06/08 09:10:09;;;;;;;33.75;29.08;;;21.20;99.90;;;;;;5017129;28;20080;-92
2021/06/08 09:12:36;;;;;;;32.47;27.65;;;21.50;99.90;;;;;;4998438;28;20112;-90
2021/06/08 09:15:13;;;;;;;34.10;28.15;;;21.70;99.90;;;;;;5003707;28;20062;-92
2021/06/08 09:17:40;;;;;;;32.30;28.13;;;21.70;99.90;;;;;;4990318;28;20056;-92
2021/06/08 09:20:12;;;;;;;33.22;27.63;;;21.70;99.90;;;;;;5001430;28;20049;-91
2021/06/08 09:22:59;;;;;;;31.38;26.92;;;22.00;99.90;;;;;;4998886;28;20039;-91
2021/06/08 09:25:39;;;;;;;31.92;25.77;;;22.60;99.90;;;;;;4999253;28;20117;-90
2021/06/08 09:28:35;;;;;;;27.88;24.63;;;23.10;99.90;;;;;;4987514;28;20423;-91
2021/06/08 09:31:21;;;;;;;28.98;24.95;;;23.30;99.90;;;;;;4989717;28;20050;-91
2021/06/08 09:34:01;;;;;;;32.53;24.73;;;23.10;99.90;;;;;;5009899;28;20069;-94
2021/06/08 09:36:31;;;;;;;35.65;25.42;;;23.30;99.90;;;;;;5006992;28;20173;-91
2021/06/08 09:39:05;;;;;;;29.27;25.00;;;23.40;99.90;;;;;;5013790;28;20046;-92
2021/06/08 09:41:50;;;;;;;28.35;24.13;;;23.30;99.90;;;;;;4986370;28;20106;-93
2021/06/08 09:44:22;;;;;;;28.90;23.95;;;23.60;99.90;;;;;;5003328;28;20050;-92
2021/06/08 09:46:56;;;;;;;32.35;25.23;;;24.60;99.90;;;;;;5005940;28;20058;-92
2021/06/08 09:49:38;;;;;;;27.13;23.00;;;25.10;99.90;;;;;;4995989;28;20054;-93
2021/06/08 09:52:11;;;;;;;24.30;21.25;;;25.80;99.90;;;;;;4980365;28;20062;-93
2021/06/08 09:54:46;;;;;;;24.80;22.13;;;25.90;99.90;;;;;;4987946;28;20061;-94
2021/06/08 09:57:22;;;;;;;29.10;23.73;;;25.30;99.60;;;;;;5009995;28;20082;-91
2021/06/08 10:00:01;;;;;;;30.17;23.08;;;24.80;99.90;;;;;;5001334;28;20645;-91
2021/06/08 10:02:51;;;;;;;28.42;23.95;;;24.20;99.90;;;;;;5004322;28;20046;-93
2021/06/08 10:05:43;;;;;;;;;;;;;;;;;;;;;
2021/06/08 10:08:24;;;;;;;31.85;25.75;;;23.30;99.90;;;;;;5007617;28;20053;-93
2021/06/08 10:11:18;;;;;;;29.92;23.88;;;23.60;99.90;;;;;;4991466;28;20043;-91
2021/06/08 10:13:45;;;;;;;31.88;25.60;;;23.40;99.90;;;;;;4983832;28;20074;-92
2021/06/08 10:16:32;;;;;;;29.08;25.23;;;23.30;99.90;;;;;;5001492;28;20046;-91
2021/06/08 10:19:02;;;;;;;35.95;24.70;;;23.30;99.90;;;;;;5003515;28;20038;-92
2021/06/08 10:21:40;;;;;;;30.00;26.90;;;23.10;99.90;;;;;;5000814;28;20051;-90
2021/06/08 10:24:53;;;;;;;33.38;26.17;;;23.00;99.90;;;;;;4988959;28;20054;-94
2021/06/08 10:27:35;;;;;;;28.80;25.45;;;23.00;99.90;;;;;;4975453;28;20051;-94
2021/06/08 10:30:26;;;;;;;28.73;25.63;;;23.00;99.90;;;;;;4981154;28;20050;-92
2021/06/08 10:32:58;;;;;;;32.67;27.17;;;22.90;99.90;;;;;;5003568;28;20038;-93
2021/06/08 10:35:53;;;;;;;33.33;27.35;;;22.70;99.90;;;;;;4983097;28;20077;-92
2021/06/08 10:38:44;;;;;;;30.38;27.17;;;22.50;99.90;;;;;;4988755;28;20054;-92
2021/06/08 10:41:24;;;;;;;;;;;;;;;;;;;;;
2021/06/08 10:44:35;;;;;;;28.65;25.55;;;22.60;99.90;;;;;;4989520;28;20117;-94
2021/06/08 10:47:45;;;;;;;31.60;25.17;;;22.70;99.90;;;;;;4986787;28;20117;-92
2021/06/08 10:53:58;;;;;;;28.52;23.98;;;23.30;99.90;;;;;;4944117;29;20559;-90
2021/06/08 10:57:03;;;;;;;26.90;24.13;;;23.30;99.90;;;;;;4937000;29;20389;-92
2021/06/08 11:03:02;;;;;;;27.75;23.05;;;23.30;99.90;;;;;;4944352;29;20094;-92
2021/06/08 11:05:54;;;;;;;25.77;22.98;;;23.40;99.90;;;;;;4972449;28;20047;-94
2021/06/08 11:09:18;;;;;;;;;;;;;;;;;;;;;
2021/06/08 11:11:54;;;;;;;24.08;21.58;;;23.80;99.90;;;;;;4978875;28;20047;-91
2021/06/08 11:14:42;;;;;;;23.17;20.77;;;23.80;99.90;;;;;;4976374;28;20055;-91
2021/06/08 11:17:36;;;;;;;25.45;22.38;;;23.90;99.90;;;;;;4978486;28;20051;-94
2021/06/08 11:20:19;;;;;;;24.95;22.27;;;23.50;99.90;;;;;;4942181;28;20457;-93
2021/06/08 11:23:05;;;;;;;24.25;21.35;;;23.60;99.90;;;;;;4969409;28;20074;-94
2021/06/08 11:25:37;;;;;;;28.15;21.85;;;23.40;99.90;;;;;;4983025;28;20122;-93
2021/06/08 11:28:08;;;;;;;25.17;22.65;;;23.10;99.90;;;;;;4980840;28;20396;-94
2021/06/08 11:31:04;;;;;;;27.58;24.70;;;22.80;99.90;;;;;;4965709;28;20046;-93
2021/06/08 11:33:50;;;;;;;29.42;24.05;;;22.60;99.90;;;;;;4979312;28;20064;-92
2021/06/08 11:36:23;;;;;;;25.40;22.80;;;22.50;99.90;;;;;;4974216;28;20063;-92
2021/06/08 11:39:30;;;;;;;26.42;23.63;;;22.30;99.90;;;;;;4977354;28;20109;-94
2021/06/08 11:42:08;;;;;;;26.75;23.85;;;22.30;99.90;;;;;;4976446;28;20070;-93
2021/06/08 11:44:35;;;;;;;24.27;21.77;;;22.40;99.90;;;;;;4982743;28;20794;-94
2021/06/08 11:47:05;;;;;;;24.48;21.80;;;22.40;99.90;;;;;;4976334;28;20456;-93
2021/06/08 11:49:35;;;;;;;24.42;21.80;;;22.50;99.90;;;;;;4946509;28;20115;-94
2021/06/08 11:52:02;;;;;;;24.05;20.95;;;22.60;99.90;;;;;;4978638;28;20062;-93
2021/06/08 11:54:30;;;;;;;25.17;22.10;;;22.80;99.90;;;;;;4985145;28;20348;-94
2021/06/08 11:57:11;;;;;;;27.15;22.55;;;22.90;99.90;;;;;;4976837;28;20043;-92
2021/06/08 12:02:58;;;;;;;24.52;20.95;;;22.80;99.90;;;;;;4965019;28;20047;-94
2021/06/08 12:05:26;;;;;;;24.95;22.27;;;23.00;99.90;;;;;;4973670;28;20389;-94
2021/06/08 12:08:02;;;;;;;23.40;20.95;;;23.10;99.90;;;;;;4960851;28;20791;-93
2021/06/08 12:10:58;;;;;;;;;;;;;;;;;;;;;
2021/06/08 12:14:00;;;;;;;25.47;22.10;;;23.30;99.90;;;;;;4978769;28;20059;-90
2021/06/08 12:16:54;;;;;;;25.35;21.90;;;23.50;99.90;;;;;;4978176;28;20046;-94
2021/06/08 12:19:49;;;;;;;24.30;20.90;;;23.80;99.90;;;;;;4969709;28;20078;-93
2021/06/08 12:22:23;;;;;;;25.00;22.35;;;24.40;99.90;;;;;;4969713;28;20047;-92
2021/06/08 12:25:07;;;;;;;26.90;21.40;;;24.90;99.90;;;;;;4931547;28;20039;-92
2021/06/08 12:27:37;;;;;;;25.08;20.05;;;25.70;98.30;;;;;;4978057;28;20190;-93
2021/06/08 12:30:31;;;;;;;23.23;20.35;;;26.60;94.60;;;;;;4981729;28;20050;-93
2021/06/08 12:33:04;;;;;;;21.00;18.23;;;26.70;92.10;;;;;;4976710;28;20058;-93
2021/06/08 12:35:45;;;;;;;19.00;17.13;;;27.00;90.70;;;;;;4961661;28;20086;-93
2021/06/08 12:38:27;;;;;;;19.40;17.55;;;27.30;89.00;;;;;;4988062;28;20038;-92
2021/06/08 12:41:34;;;;;;;20.17;18.13;;;26.50;90.80;;;;;;4981338;28;20617;-92
2021/06/08 12:44:09;;;;;;;21.10;18.40;;;26.10;92.20;;;;;;4974286;28;20117;-93
2021/06/08 12:46:50;;;;;;;20.92;18.83;;;26.40;92.70;;;;;;4967821;28;20066;-92
2021/06/08 12:49:40;;;;;;;22.65;18.45;;;26.40;91.10;;;;;;4993707;28;20090;-93
2021/06/08 12:52:26;;;;;;;21.55;19.15;;;26.20;90.90;;;;;;4998230;28;20058;-93
2021/06/08 12:55:08;;;;;;;22.00;19.65;;;25.70;93.60;;;;;;4996013;28;20729;-93
2021/06/08 12:57:35;;;;;;;23.45;20.95;;;25.20;95.30;;;;;;4988300;28;20058;-92
2021/06/08 13:00:18;;;;;;;23.88;21.35;;;24.70;96.50;;;;;;4990258;28;20206;-94
2021/06/08 13:02:48;;;;;;;22.73;20.23;;;24.30;97.00;;;;;;4982441;28;20051;-93
2021/06/08 13:05:20;;;;;;;21.73;19.52;;;24.20;99.90;;;;;;4978210;28;20069;-93
2021/06/08 13:07:49;;;;;;;22.35;19.98;;;24.30;99.90;;;;;;4951385;29;20078;-92
2021/06/08 13:10:25;;;;;;;21.52;19.33;;;24.00;99.90;;;;;;4975057;28;20121;-93
2021/06/08 13:12:54;;;;;;;20.17;18.17;;;24.10;99.90;;;;;;4974072;28;20130;-92
2021/06/08 13:15:34;;;;;;;18.38;16.48;;;24.50;99.90;;;;;;4987235;28;20118;-93
2021/06/08 13:18:09;;;;;;;17.75;16.00;;;26.20;99.10;;;;;;4991595;28;20047;-94
2021/06/08 13:21:05;;;;;;;16.77;15.07;;;28.20;90.50;;;;;;4986935;28;20455;-92
2021/06/08 13:26:31;;;;;;;17.25;15.38;;;30.00;72.80;;;;;;4934314;29;20120;-95
2021/06/08 13:29:20;;;;;;;15.60;14.05;;;30.40;69.10;;;;;;4960233;29;20472;-93
2021/06/08 13:31:55;;;;;;;18.17;15.82;;;30.90;65.90;;;;;;4940159;29;20052;-94
2021/06/08 13:35:09;;;;;;;23.75;16.38;;;29.70;65.40;;;;;;4948664;28;20035;-94